TimeMDT,TemperatureF,Dew PointF,Humidity,Sea Level PressureIn,VisibilityMPH,Wind Direction,Wind SpeedMPH,Gust SpeedMPH,PrecipitationIn,Events,Conditions,WindDirDegrees,DateUTC
12:53 AM,25.0,17.1,72,29.94,10.0,South,8.1,-,N/A,,Scattered Clouds,180,2013-03-27 06:53:00
1:53 AM,27.0,21.0,78,29.95,-9999.0,North,5.8,-,N/A,,Overcast,350,2013-03-27 07:53:00
2:53 AM,24.1,18.0,77,29.95,-9999.0,Calm,Calm,-,N/A,,Scattered Clouds,0,2013-03-27 08:53:00
3:53 AM,23.0,19.0,85,29.96,10.0,WSW,4.6,-,N/A,,Partly Cloudy,240,2013-03-27 09:53:00
4:53 AM,23.0,19.9,88,29.98,10.0,Calm,Calm,-,N/A,,Mostly Cloudy,0,2013-03-27 10:53:00
5:53 AM,23.0,21.0,92,30.00,10.0,Calm,Calm,-,N/A,,Overcast,0,2013-03-27 11:53:00
6:53 AM,21.0,18.0,88,30.02,10.0,SE,4.6,-,N/A,,Clear,130,2013-03-27 12:53:00
7:53 AM,26.1,23.0,88,30.04,-9999.0,SE,4.6,-,N/A,,Mostly Cloudy,140,2013-03-27 13:53:00
8:53 AM,30.9,25.0,79,30.04,-9999.0,South,3.5,-,N/A,,Mostly Cloudy,180,2013-03-27 14:53:00
9:53 AM,37.9,26.1,62,30.00,-9999.0,WSW,5.8,-,N/A,,Clear,240,2013-03-27 15:53:00
10:53 AM,41.0,23.0,49,29.98,-9999.0,West,8.1,-,N/A,,Partly Cloudy,260,2013-03-27 16:53:00
11:53 AM,46.0,21.9,39,29.96,10.0,SW,12.7,21.9,N/A,,Overcast,230,2013-03-27 17:53:00
12:53 PM,45.0,19.0,36,29.99,10.0,West,12.7,-,N/A,,Partly Cloudy,260,2013-03-27 18:53:00
1:53 PM,46.0,18.0,33,29.95,10.0,NNW,9.2,17.3,N/A,,Mostly Cloudy,330,2013-03-27 19:53:00
2:53 PM,46.9,19.0,33,29.96,10.0,NNW,4.6,-,N/A,,Overcast,340,2013-03-27 20:53:00
3:24 PM,50.0,15.8,26,30.01,10.0,West,8.1,-,N/A,,Mostly Cloudy,270,2013-03-27 21:24:00
3:53 PM,50.0,18.0,28,29.94,10.0,WNW,10.4,-,N/A,,Scattered Clouds,300,2013-03-27 21:53:00
4:53 PM,50.0,19.0,29,29.95,10.0,NNW,11.5,-,N/A,,Partly Cloudy,330,2013-03-27 22:53:00
5:53 PM,48.9,17.1,28,29.97,10.0,WSW,16.1,-,N/A,,Partly Cloudy,250,2013-03-27 23:53:00
6:53 PM,42.1,21.0,43,30.04,10.0,WNW,11.5,-,N/A,,Clear,290,2013-03-28 00:53:00
7:53 PM,39.0,21.9,50,30.03,10.0,WNW,12.7,-,N/A,,Mostly Cloudy,300,2013-03-28 01:53:00
8:53 PM,37.9,24.1,57,30.03,-9999.0,WSW,9.2,-,N/A,,Overcast,240,2013-03-28 02:53:00
9:53 PM,35.1,24.1,64,30.01,10.0,WSW,5.8,-,N/A,,Overcast,250,2013-03-28 03:53:00
10:53 PM,32.0,25.0,75,30.02,-9999.0,South,8.1,-,N/A,,Overcast,170,2013-03-28 04:53:00
11:53 PM,28.9,24.1,82,30.01,10.0,South,8.1,-,N/A,,Mostly Cloudy,180,2013-03-28 05:53:00